Time;durP1;ratioP1;P1;durP2;ratioP2;P2;SDS_P1;SDS_P2;PMS_P1;PMS_P2;Temp;Humidity;BMP_temperature;BMP_pressure;BME280_temperature;BME280_humidity;BME280_pressure;Samples;Min_cycle;Max_cycle;Signal;HPM_P1;HPM_P2
2022/01/14 04:30:54;;;;;;;34.23;20.20;;;;;;;4.69;55.05;100654.34;7975006;23;20244;-82
2022/01/14 04:34:16;;;;;;;28.23;19.33;;;;;;;4.30;55.88;100661.03;6805584;29;20659;-81
2022/01/14 04:37:37;;;;;;;28.97;20.13;;;;;;;4.21;56.43;100644.91;6815605;29;20210;-81
2022/01/14 04:40:59;;;;;;;30.47;18.03;;;;;;;3.84;56.92;100649.56;6816114;29;20238;-81
2022/01/14 04:44:21;;;;;;;29.63;19.07;;;;;;;4.32;56.31;100668.94;6816026;29;20245;-81
2022/01/14 04:47:47;;;;;;;27.73;19.37;;;;;;;3.95;56.94;100657.59;6815069;29;20246;-81
2022/01/14 04:51:10;;;;;;;29.47;20.53;;;;;;;4.22;56.62;100662.59;6816408;29;20262;-82
2022/01/14 04:54:32;;;;;;;28.67;18.30;;;;;;;4.43;56.55;100652.91;6815798;29;20222;-82
2022/01/14 04:57:55;;;;;;;23.47;17.73;;;;;;;4.03;57.00;100649.88;6814806;29;20356;-81
2022/01/14 05:01:16;;;;;;;27.17;18.37;;;;;;;3.55;58.82;100653.59;6816366;29;20233;-81
2022/01/14 05:04:40;;;;;;;29.60;19.27;;;;;;;3.89;57.48;100650.06;6814637;29;20265;-82
2022/01/14 05:08:02;;;;;;;29.40;17.87;;;;;;;3.79;57.92;100646.38;6815178;29;20225;-81
2022/01/14 05:11:36;;;;;;;24.83;18.57;;;;;;;4.23;57.48;100653.63;6815527;29;20242;-83
2022/01/14 05:14:57;;;;;;;31.73;20.80;;;;;;;4.19;57.34;100658.34;6814979;29;20210;-81
2022/01/14 05:18:19;;;;;;;27.77;18.67;;;;;;;4.46;56.18;100642.84;6814754;29;20202;-82
2022/01/14 05:21:42;;;;;;;27.43;18.50;;;;;;;4.51;55.74;100618.44;6815317;29;20230;-82
2022/01/14 05:25:04;;;;;;;33.60;19.90;;;;;;;4.63;55.59;100653.03;6814500;29;20213;-81
2022/01/14 05:28:26;;;;;;;28.03;18.80;;;;;;;4.32;55.88;100658.25;6814638;29;20213;-81
2022/01/14 05:31:50;;;;;;;29.43;19.20;;;;;;;3.79;58.36;100673.06;6815035;29;20238;-81
2022/01/14 05:35:11;;;;;;;26.63;18.67;;;;;;;4.33;56.96;100675.97;6814524;29;20207;-83
2022/01/14 05:38:34;;;;;;;25.27;17.13;;;;;;;4.52;55.92;100677.06;6815417;29;20210;-81
2022/01/14 05:41:56;;;;;;;30.27;20.47;;;;;;;4.51;56.01;100654.00;6814913;29;20239;-81
2022/01/14 05:45:18;;;;;;;30.50;19.57;;;;;;;4.72;55.14;100660.28;6814434;29;20937;-81
2022/01/14 05:48:39;;;;;;;31.13;19.57;;;;;;;4.27;56.20;100647.09;6815624;29;20217;-81
2022/01/14 05:52:01;;;;;;;26.57;20.00;;;;;;;4.43;56.43;100640.41;6815237;29;20243;-81
2022/01/14 05:55:24;;;;;;;29.43;19.70;;;;;;;4.69;56.41;100652.53;6813870;29;20208;-83
2022/01/14 05:58:45;;;;;;;30.27;18.90;;;;;;;4.59;55.43;100595.47;6813744;29;20247;-83
2022/01/14 06:02:07;;;;;;;26.77;18.37;;;;;;;4.48;55.51;100629.38;6814354;29;20278;-81
2022/01/14 06:05:29;;;;;;;27.23;18.27;;;;;;;4.68;55.23;100642.84;6815033;29;20206;-82
2022/01/14 06:08:50;;;;;;;23.33;16.60;;;;;;;4.72;54.98;100641.59;6815000;29;20207;-82
2022/01/14 06:12:13;;;;;;;28.20;18.30;;;;;;;4.38;55.22;100636.41;6814363;29;20235;-82
2022/01/14 06:15:35;;;;;;;31.27;19.63;;;;;;;4.34;55.57;100634.94;6814428;29;20234;-81
2022/01/14 06:18:56;;;;;;;28.77;17.90;;;;;;;4.32;55.58;100637.72;6815624;29;20586;-81
2022/01/14 06:22:18;;;;;;;26.83;19.07;;;;;;;4.24;55.88;100636.66;6814861;29;20231;-82
2022/01/14 06:25:40;;;;;;;25.77;17.97;;;;;;;4.43;55.74;100635.06;6813955;29;20306;-81
2022/01/14 06:29:04;;;;;;;28.33;19.00;;;;;;;4.08;55.86;100591.63;6813683;29;20215;-82
2022/01/14 06:32:25;;;;;;;27.93;19.43;;;;;;;4.44;55.67;100628.78;6813635;29;20237;-81
2022/01/14 06:35:49;;;;;;;27.53;18.17;;;;;;;4.38;55.35;100623.06;6812746;29;20218;-81
2022/01/14 06:39:11;;;;;;;26.97;17.80;;;;;;;3.98;55.65;100558.63;6784279;29;20254;-81
2022/01/14 06:42:32;;;;;;;27.63;17.30;;;;;;;4.49;55.56;100623.06;6765888;29;20235;-81
2022/01/14 06:45:55;;;;;;;23.47;16.53;;;;;;;4.43;55.64;100620.88;6780695;29;20707;-81
2022/01/14 06:49:17;;;;;;;27.27;18.43;;;;;;;4.20;56.49;100617.34;6769629;29;20675;-81
2022/01/14 06:52:39;;;;;;;28.90;18.47;;;;;;;3.95;56.14;100606.06;6770135;29;20238;-81
2022/01/14 06:56:00;;;;;;;25.37;16.93;;;;;;;3.93;56.56;100608.84;6761828;29;20235;-81
2022/01/14 06:59:22;;;;;;;24.57;17.03;;;;;;;4.16;55.98;100621.25;6763762;29;20203;-81
2022/01/14 07:02:45;;;;;;;26.90;18.43;;;;;;;3.92;57.45;100659.66;6785917;29;20242;-81
2022/01/14 07:06:06;;;;;;;26.97;18.37;;;;;;;4.02;57.55;100652.66;6789399;29;20206;-82
2022/01/14 07:09:30;;;;;;;26.00;18.83;;;;;;;4.22;56.32;100649.25;6789219;29;20215;-82
2022/01/14 07:12:52;;;;;;;25.67;17.50;;;;;;;3.61;57.20;100622.97;6771252;29;20225;-81
2022/01/14 07:16:13;;;;;;;29.70;18.10;;;;;;;3.92;57.83;100667.66;6763476;29;20614;-82
2022/01/14 07:19:37;;;;;;;25.50;18.87;;;;;;;4.24;56.30;100650.00;6787928;29;20211;-83
2022/01/14 07:22:59;;;;;;;32.13;22.10;;;;;;;4.34;56.30;100675.84;6789559;29;20295;-82
2022/01/14 07:26:21;;;;;;;30.10;19.37;;;;;;;4.35;55.64;100698.91;6789049;29;20204;-81
2022/01/14 07:29:43;;;;;;;30.10;19.93;;;;;;;4.13;55.20;100696.19;6789341;29;20299;-81
2022/01/14 07:33:05;;;;;;;30.50;20.83;;;;;;;4.15;55.99;100690.75;6789526;29;20235;-83
2022/01/14 07:36:28;;;;;;;30.00;19.90;;;;;;;3.90;56.13;100686.44;6781558;29;20227;-82
2022/01/14 07:39:49;;;;;;;28.37;19.93;;;;;;;4.06;56.44;100711.00;6762325;29;20216;-82
2022/01/14 07:43:11;;;;;;;34.03;21.10;;;;;;;3.91;56.60;100693.50;6774497;29;20244;-82
2022/01/14 07:46:33;;;;;;;24.33;16.87;;;;;;;4.20;56.24;100702.75;6771395;29;20211;-82
2022/01/14 07:49:54;;;;;;;27.63;18.30;;;;;;;4.18;54.57;100631.81;6792204;29;20209;-84
2022/01/14 07:53:17;;;;;;;24.97;18.33;;;;;;;4.46;54.89;100692.72;6778352;29;20233;-84
2022/01/14 07:56:41;;;;;;;23.27;16.63;;;;;;;4.56;54.33;100699.91;6765967;29;20208;-85
2022/01/14 08:00:04;;;;;;;23.87;16.60;;;;;;;4.39;54.63;100671.00;6768327;29;20225;-81
2022/01/14 08:03:26;;;;;;;28.27;18.23;;;;;;;4.32;54.81;100699.13;6769921;29;20239;-84
2022/01/14 08:06:50;;;;;;;25.60;17.23;;;;;;;3.88;55.69;100695.53;6793800;29;20219;-84
2022/01/14 08:10:13;;;;;;;27.87;18.73;;;;;;;3.46;57.23;100675.66;6794064;29;20586;-84
2022/01/14 08:13:35;;;;;;;31.70;19.43;;;;;;;3.13;58.27;100655.97;6793883;29;20218;-84
2022/01/14 08:16:56;;;;;;;34.77;21.17;;;;;;;4.05;56.95;100695.97;6794113;29;20299;-85
2022/01/14 08:20:18;;;;;;;31.33;20.90;;;;;;;4.15;56.96;100699.63;6786729;29;20216;-85
2022/01/14 08:23:40;;;;;;;38.37;23.63;;;;;;;4.41;56.39;100713.59;6791811;29;20283;-83
2022/01/14 08:27:05;;;;;;;37.93;27.23;;;;;;;4.57;55.99;100704.28;6792522;29;20211;-84
2022/01/14 08:30:27;;;;;;;36.80;25.33;;;;;;;4.62;55.78;100698.56;6792618;29;20704;-82
2022/01/14 08:33:49;;;;;;;40.00;23.53;;;;;;;4.36;55.79;100667.72;6791935;29;20195;-85
2022/01/14 08:37:10;;;;;;;40.70;24.70;;;;;;;4.61;55.77;100662.97;6793168;29;20207;-84
2022/01/14 08:40:32;;;;;;;36.77;24.00;;;;;;;4.69;55.28;100681.94;6792739;29;20232;-86
2022/01/14 08:43:55;;;;;;;39.47;21.60;;;;;;;4.66;56.08;100700.03;6790841;29;20242;-84
2022/01/14 08:47:16;;;;;;;32.00;20.67;;;;;;;6.68;52.28;100697.97;6783287;29;20218;-83
2022/01/14 08:50:39;;;;;;;27.00;19.80;;;;;;;9.59;44.87;100679.84;6783705;29;20234;-84
2022/01/14 08:54:02;;;;;;;31.97;20.17;;;;;;;9.22;43.13;100694.41;6768862;29;20212;-84
2022/01/14 08:57:24;;;;;;;34.43;21.50;;;;;;;9.64;43.43;100690.13;6768784;29;20221;-85
2022/01/14 09:00:48;;;;;;;29.27;19.90;;;;;;;10.40;42.46;100670.59;6767374;29;20257;-85
2022/01/14 09:04:10;;;;;;;29.37;19.63;;;;;;;9.02;42.71;100631.78;6792094;29;20218;-84
2022/01/14 09:07:32;;;;;;;29.67;19.60;;;;;;;8.55;45.83;100666.97;6793410;29;20189;-84
2022/01/14 09:10:53;;;;;;;26.50;18.53;;;;;;;8.16;47.00;100684.16;6793180;29;20621;-84
2022/01/14 09:14:15;;;;;;;29.67;20.23;;;;;;;7.41;47.29;100693.94;6792243;29;20236;-84
2022/01/14 09:17:40;;;;;;;32.73;20.73;;;;;;;6.92;49.78;100663.59;6787036;29;20659;-82
2022/01/14 09:21:01;;;;;;;27.63;18.40;;;;;;;6.56;50.38;100656.16;6768482;29;20232;-84
2022/01/14 09:24:23;;;;;;;21.87;17.97;;;;;;;7.22;49.77;100690.38;6795553;29;20779;-82
2022/01/14 09:27:47;;;;;;;25.23;17.50;;;;;;;6.79;50.60;100674.56;6797257;29;20212;-84
2022/01/14 09:31:08;;;;;;;23.93;16.73;;;;;;;7.14;50.43;100666.91;6796591;29;20243;-84
2022/01/14 09:34:31;;;;;;;24.43;17.53;;;;;;;7.49;50.14;100679.81;6795932;29;20219;-84
2022/01/14 09:37:54;;;;;;;24.70;15.83;;;;;;;7.58;49.11;100679.81;6795700;29;20208;-83
2022/01/14 09:41:17;;;;;;;23.70;15.67;;;;;;;8.02;47.88;100655.03;6792307;29;20238;-85
2022/01/14 09:44:39;;;;;;;19.97;14.43;;;;;;;8.04;48.26;100671.88;6790923;29;20237;-84
2022/01/14 09:48:01;;;;;;;23.43;17.07;;;;;;;8.27;48.09;100653.63;6791005;29;20207;-84
2022/01/14 09:51:24;;;;;;;21.93;14.93;;;;;;;8.71;47.75;100674.44;6791134;29;20226;-84
2022/01/14 09:54:47;;;;;;;24.53;16.77;;;;;;;8.84;46.17;100653.41;6776990;29;20200;-84
2022/01/14 09:58:09;;;;;;;21.13;14.60;;;;;;;8.71;46.80;100669.88;6769404;29;20206;-84
2022/01/14 10:01:38;;;;;;;21.53;15.63;;;;;;;9.03;45.53;100667.59;6780080;29;20233;-83
2022/01/14 10:05:00;;;;;;;29.37;17.27;;;;;;;8.87;46.97;100645.88;6786431;29;20796;-85
2022/01/14 10:08:25;;;;;;;17.43;13.27;;;;;;;9.84;45.45;100670.97;6787291;29;20217;-83
2022/01/14 10:12:00;;;;;;;18.40;12.23;;;;;;;10.43;43.68;100651.38;6791965;29;20231;-83
2022/01/14 10:15:22;;;;;;;71.57;35.77;;;;;;;10.16;43.45;100636.22;6798620;29;20199;-83
2022/01/14 10:18:50;;;;;;;208.83;71.77;;;;;;;10.50;43.69;100644.38;6792516;29;20566;-84
2022/01/14 10:22:25;;;;;;;314.00;91.67;;;;;;;10.79;43.46;100661.88;6790739;29;20238;-85
2022/01/14 10:25:57;;;;;;;257.60;72.60;;;;;;;10.28;43.59;100651.13;6790339;29;20218;-87
2022/01/14 10:29:31;;;;;;;81.80;35.83;;;;;;;10.74;41.67;100655.28;6791568;29;20191;-84
2022/01/14 10:32:55;;;;;;;115.37;49.33;;;;;;;10.68;41.72;100610.06;6791227;29;20286;-84
2022/01/14 10:36:21;;;;;;;327.87;115.47;;;;;;;10.82;42.71;100644.50;6790039;29;20203;-84
2022/01/14 10:39:45;;;;;;;284.50;95.70;;;;;;;11.03;41.31;100640.38;6790425;29;20636;-84
2022/01/14 10:43:10;;;;;;;71.77;31.13;;;;;;;11.02;41.84;100644.09;6814071;23;20311;-82
2022/01/14 10:50:58;;;;;;;16.30;12.13;;;;;;;9.32;42.36;100590.19;6826199;23;20230;-86
2022/01/14 10:54:39;;;;;;;22.83;15.10;;;;;;;9.90;43.15;100637.16;6813938;29;20237;-85
2022/01/14 10:58:02;;;;;;;16.60;12.43;;;;;;;9.60;42.89;100619.59;6812242;29;20298;-87
2022/01/14 11:01:26;;;;;;;15.23;11.70;;;;;;;10.39;42.25;100629.28;6832691;28;20217;-85
2022/01/14 11:05:01;;;;;;;18.30;13.23;;;;;;;10.78;42.33;100591.88;6800371;29;20239;-89
2022/01/14 11:08:38;;;;;;;19.27;14.10;;;;;;;10.90;41.55;100610.31;6796712;29;20203;-88
2022/01/14 11:12:00;;;;;;;15.47;11.90;;;;;;;10.88;40.08;100609.66;6794527;29;20207;-87
2022/01/14 11:15:23;;;;;;;13.93;10.40;;;;;;;10.59;40.18;100602.94;6791137;29;20266;-90
2022/01/14 11:18:48;;;;;;;16.33;12.10;;;;;;;9.57;41.75;100555.25;6803950;29;20300;-84
2022/01/14 11:26:01;;;;;;;21.57;15.87;;;;;;;10.82;40.72;100594.09;6803809;29;20234;-86
2022/01/14 11:29:23;;;;;;;17.73;13.10;;;;;;;10.91;40.24;100605.75;6804860;29;20209;-86
2022/01/14 11:32:55;;;;;;;25.13;18.17;;;;;;;11.47;39.97;100570.78;6804035;29;20203;-86
2022/01/14 11:36:18;;;;;;;17.37;13.53;;;;;;;11.01;40.92;100590.25;6793180;29;20214;-83
2022/01/14 11:39:41;;;;;;;23.00;18.50;;;;;;;11.41;40.04;100552.53;6793444;29;20780;-84
2022/01/14 11:43:03;;;;;;;15.80;13.13;;;;;;;11.93;39.46;100570.13;6815975;29;20206;-85
2022/01/14 11:46:46;;;;;;;19.20;16.33;;;;;;;11.59;39.86;100561.34;6796544;29;20803;-85
2022/01/14 11:50:47;;;;;;;15.93;12.50;;;;;;;10.95;40.59;100555.84;6793996;29;20199;-86
2022/01/14 11:54:10;;;;;;;20.00;13.93;;;;;;;12.10;39.69;100552.84;6809206;29;20234;-86
2022/01/14 11:57:44;;;;;;;16.50;12.63;;;;;;;11.84;38.99;100534.16;6821435;29;20214;-86
2022/01/14 12:01:05;;;;;;;14.63;11.50;;;;;;;11.93;38.78;100511.47;6822478;29;20671;-84
2022/01/14 12:05:08;;;;;;;16.00;12.37;;;;;;;11.43;39.97;100528.91;6823876;29;20245;-83
2022/01/14 12:08:30;;;;;;;17.23;11.20;;;;;;;12.21;38.83;100522.75;6830790;28;20210;-84
2022/01/14 12:12:24;;;;;;;14.03;11.30;;;;;;;12.49;37.63;100518.56;6844733;28;20198;-84
2022/01/14 12:15:51;;;;;;;21.63;13.87;;;;;;;12.60;37.39;100483.84;6824097;28;20229;-81
2022/01/14 12:19:16;;;;;;;16.77;11.60;;;;;;;12.34;38.43;100472.47;6821334;29;20987;-84
2022/01/14 12:22:38;;;;;;;13.80;10.67;;;;;;;12.17;38.12;100429.47;6810425;29;20579;-84
2022/01/14 12:26:13;;;;;;;13.63;10.80;;;;;;;12.76;37.64;100496.44;6804710;29;20234;-83
2022/01/14 12:29:37;;;;;;;15.97;10.80;;;;;;;12.45;38.36;100501.00;6797547;29;20214;-85
2022/01/14 12:32:59;;;;;;;14.40;10.30;;;;;;;12.13;38.39;100501.13;6799424;29;20286;-84
2022/01/14 12:36:27;;;;;;;13.90;10.63;;;;;;;11.28;39.63;100479.28;6821004;29;20206;-87
2022/01/14 12:39:49;;;;;;;14.03;10.37;;;;;;;12.07;38.51;100463.97;6818035;29;20212;-87
2022/01/14 12:43:13;;;;;;;14.10;10.47;;;;;;;12.07;38.95;100467.53;6819872;29;20223;-86
2022/01/14 12:46:40;;;;;;;12.40;10.27;;;;;;;12.38;38.18;100476.50;6821127;29;20234;-87
2022/01/14 12:50:04;;;;;;;13.60;9.87;;;;;;;11.84;38.88;100455.78;6820745;29;20214;-86
2022/01/14 12:53:26;;;;;;;11.93;8.97;;;;;;;11.88;38.46;100459.81;6819361;29;20231;-86
2022/01/14 12:56:54;;;;;;;11.43;8.97;;;;;;;11.82;38.99;100438.91;6815745;29;20561;-86
2022/01/14 13:00:16;;;;;;;13.60;8.63;;;;;;;11.96;38.49;100427.34;6817130;29;20193;-85
2022/01/14 13:03:39;;;;;;;11.83;9.40;;;;;;;11.19;39.73;100383.94;6816209;29;20312;-87
2022/01/14 13:07:02;;;;;;;12.47;9.73;;;;;;;12.24;38.88;100441.25;6815336;29;20217;-85
2022/01/14 13:10:24;;;;;;;11.33;9.60;;;;;;;12.00;38.94;100438.66;6829230;29;20211;-85
2022/01/14 13:13:58;;;;;;;12.97;9.93;;;;;;;12.95;37.73;100431.88;6818463;29;20254;-86
2022/01/14 13:17:24;;;;;;;11.93;9.27;;;;;;;12.55;37.58;100439.38;6815793;29;20201;-86
2022/01/14 13:20:47;;;;;;;13.30;10.60;;;;;;;12.62;38.35;100434.97;6824477;29;20195;-85
2022/01/14 13:24:18;;;;;;;18.60;9.80;;;;;;;13.48;36.87;100422.78;6812865;29;20265;-84
2022/01/14 13:27:42;;;;;;;17.00;12.43;;;;;;;13.15;36.99;100410.59;6813635;29;20632;-85
2022/01/14 13:31:09;;;;;;;17.57;12.67;;;;;;;13.45;37.19;100412.31;6814115;29;20210;-84
2022/01/14 13:34:31;;;;;;;18.30;14.47;;;;;;;13.14;37.45;100417.00;6797951;29;20232;-83
2022/01/14 13:37:55;;;;;;;17.67;12.97;;;;;;;13.16;36.87;100407.66;6788426;29;20219;-82
2022/01/14 13:41:23;;;;;;;13.27;9.70;;;;;;;12.79;37.30;100417.56;6787582;29;20218;-85
2022/01/14 13:44:47;;;;;;;18.27;12.63;;;;;;;12.79;36.93;100352.63;6788275;29;20230;-85
2022/01/14 13:48:11;;;;;;;12.30;9.80;;;;;;;13.68;36.10;100410.41;6788035;29;20831;-84
2022/01/14 13:51:35;;;;;;;13.77;10.10;;;;;;;13.47;36.24;100396.72;6789550;29;20229;-84
2022/01/14 13:54:58;;;;;;;11.87;10.17;;;;;;;13.56;36.47;100396.44;6788236;29;20233;-87
2022/01/14 13:58:23;;;;;;;11.03;8.90;;;;;;;13.30;36.53;100404.16;6788721;29;20203;-86
2022/01/14 14:01:52;;;;;;;13.63;10.47;;;;;;;13.34;36.12;100405.47;6805530;29;20916;-86
2022/01/14 14:05:39;;;;;;;11.40;9.33;;;;;;;13.20;36.44;100409.00;6800926;29;20261;-87
2022/01/14 14:09:05;;;;;;;11.30;9.63;;;;;;;13.61;36.37;100398.59;6805965;29;20211;-87
2022/01/14 14:12:41;;;;;;;20.93;13.30;;;;;;;13.43;36.23;100408.94;6809680;29;20198;-87
2022/01/14 14:16:01;;;;;;;17.63;12.00;;;;;;;13.35;36.81;100392.78;6809624;29;20222;-88
2022/01/14 14:19:24;;;;;;;16.33;11.77;;;;;;;13.56;37.12;100388.31;6811524;29;20277;-88
2022/01/14 14:22:45;;;;;;;14.77;11.73;;;;;;;13.09;37.76;100395.88;6805008;29;20214;-87
2022/01/14 14:26:29;;;;;;;14.27;11.97;;;;;;;13.69;37.28;100393.09;6799509;29;20226;-88
2022/01/14 14:29:53;;;;;;;13.63;10.97;;;;;;;13.64;37.85;100379.25;6802156;29;20217;-88
2022/01/14 14:33:18;;;;;;;18.70;11.03;;;;;;;13.12;38.03;100313.44;6831422;29;20210;-88
2022/01/14 14:36:41;;;;;;;16.17;12.27;;;;;;;13.34;38.04;100369.41;6830072;29;20217;-87
2022/01/14 14:40:04;;;;;;;14.13;11.50;;;;;;;13.09;38.59;100362.56;6816657;29;20183;-87
2022/01/14 14:43:26;;;;;;;13.87;11.37;;;;;;;12.84;39.07;100361.88;6811615;29;20222;-84
2022/01/14 14:46:52;;;;;;;14.27;12.57;;;;;;;12.40;38.77;100314.03;6810633;29;20231;-84
2022/01/14 14:50:24;;;;;;;15.23;11.87;;;;;;;12.23;39.87;100343.03;6807673;29;20215;-84
2022/01/14 14:53:50;;;;;;;14.20;11.33;;;;;;;12.33;39.59;100348.25;6697863;29;20261;-84
2022/01/14 14:57:12;;;;;;;13.23;10.27;;;;;;;12.35;38.71;100354.31;6797958;29;20233;-84
2022/01/14 15:00:33;;;;;;;16.10;10.67;;;;;;;12.12;39.31;100364.25;6800085;29;20202;-84
2022/01/14 15:03:56;;;;;;;13.07;9.97;;;;;;;11.99;39.62;100358.56;6803403;29;20227;-84
2022/01/14 15:07:18;;;;;;;12.50;9.13;;;;;;;11.53;40.52;100362.09;6784213;29;20214;-84
2022/01/14 15:10:40;;;;;;;12.63;9.20;;;;;;;11.33;41.19;100356.25;6783587;29;20213;-86
2022/01/14 15:14:06;;;;;;;17.73;12.63;;;;;;;11.38;41.28;100375.47;6782193;29;20238;-84
2022/01/14 15:21:10;;;;;;;27.17;19.47;;;;;;;10.78;43.12;100376.03;6801536;29;20266;-81
2022/01/14 15:24:32;;;;;;;23.27;18.90;;;;;;;10.66;43.52;100363.88;6809778;29;20238;-85
2022/01/14 15:27:54;;;;;;;13.43;10.13;;;;;;;10.28;43.97;100332.16;6811756;29;20648;-86
2022/01/14 15:31:17;;;;;;;15.20;11.70;;;;;;;10.18;44.32;100355.72;6810984;29;20215;-85
2022/01/14 15:34:39;;;;;;;23.40;13.57;;;;;;;9.24;46.51;100307.53;6810988;29;20258;-84
2022/01/14 15:38:05;;;;;;;22.30;13.73;;;;;;;9.80;45.76;100356.28;6793111;29;20258;-86
2022/01/14 15:41:29;;;;;;;19.57;15.00;;;;;;;9.66;45.78;100336.19;6783922;29;20262;-85
2022/01/14 15:44:50;;;;;;;76.97;43.00;;;;;;;8.96;47.86;100361.69;6782753;29;20646;-86
2022/01/14 15:48:12;;;;;;;63.70;33.43;;;;;;;8.49;48.96;100349.53;6783449;29;20216;-86
2022/01/14 15:51:42;;;;;;;52.67;28.97;;;;;;;8.48;49.06;100356.72;6793835;29;20221;-86
2022/01/14 15:55:07;;;;;;;29.57;19.27;;;;;;;8.90;48.68;100368.50;6807522;29;20227;-84
2022/01/14 15:58:28;;;;;;;32.40;20.87;;;;;;;8.95;48.30;100376.13;6812423;29;20232;-82
2022/01/14 16:01:50;;;;;;;22.47;14.90;;;;;;;8.41;49.52;100368.25;6816846;29;20217;-84
2022/01/14 16:05:13;;;;;;;27.00;19.20;;;;;;;8.35;50.09;100380.47;6819595;29;20252;-81
2022/01/14 16:08:37;;;;;;;19.77;14.73;;;;;;;7.68;50.20;100253.84;6804762;29;20283;-81
2022/01/14 16:12:03;;;;;;;24.10;14.73;;;;;;;7.99;49.86;100354.53;6792181;29;20188;-81
2022/01/14 16:15:25;;;;;;;18.03;11.87;;;;;;;8.11;49.98;100360.50;6792373;29;20244;-83
2022/01/14 16:18:47;;;;;;;60.10;31.17;;;;;;;7.49;50.77;100320.19;6793315;29;20218;-82
2022/01/14 16:22:08;;;;;;;14.77;11.17;;;;;;;7.79;50.95;100365.53;6793524;29;20204;-82
2022/01/14 16:25:31;;;;;;;15.40;11.73;;;;;;;7.64;51.40;100370.53;6791983;29;20241;-82
2022/01/14 16:46:44;;;;;;;13.57;9.67;;;;;;;7.15;52.32;100340.53;6826332;23;20239;-81
2022/01/14 17:00:09;;;;;;;;;;;;;;;;;;;;;
2022/01/14 17:11:44;;;;;;;13.10;9.97;;;;;;;7.39;51.00;100381.97;6769869;29;20217;-79
2022/01/14 17:15:07;;;;;;;17.43;10.30;;;;;;;7.07;51.52;100327.84;6800759;29;20203;-78
2022/01/14 17:18:31;;;;;;;14.03;10.03;;;;;;;6.97;51.49;100348.50;6797006;29;20204;-78
2022/01/14 17:21:56;;;;;;;15.57;11.57;;;;;;;7.15;51.85;100394.16;6790560;29;20218;-79
2022/01/14 17:26:05;;;;;;;;;;;;;;;;;;;;;
2022/01/14 17:30:08;;;;;;;11.40;8.93;;;;;;;5.92;52.78;100235.25;6733761;29;20255;-79
2022/01/14 17:33:30;;;;;;;14.30;11.17;;;;;;;6.60;52.48;100341.38;6833766;28;20219;-79
2022/01/14 17:36:53;;;;;;;16.83;10.03;;;;;;;6.76;52.56;100385.34;6842418;28;20220;-79
2022/01/14 17:48:35;;;;;;;22.60;14.47;;;;;;;5.77;53.09;100263.38;6758440;28;20207;-80
2022/01/14 17:56:04;;;;;;;18.00;10.97;;;;;;;6.52;52.58;100351.94;6821166;29;20265;-78
2022/01/14 17:59:28;;;;;;;16.87;11.10;;;;;;;6.72;52.54;100408.06;6835687;28;20216;-78
2022/01/14 18:31:18;;;;;;;20.83;11.07;;;;;;;6.01;55.31;100373.59;6927618;23;20282;-80
2022/01/14 18:34:40;;;;;;;16.93;11.10;;;;;;;6.16;54.46;100341.91;6812010;29;20252;-79
2022/01/14 18:38:01;;;;;;;18.23;9.63;;;;;;;6.12;53.79;100327.97;6812644;29;20677;-82
2022/01/14 18:41:23;;;;;;;16.67;10.93;;;;;;;6.06;52.97;100328.53;6813143;29;20677;-79
2022/01/14 18:44:44;;;;;;;14.47;11.80;;;;;;;6.07;53.76;100356.16;6812207;29;20260;-80
2022/01/14 18:48:07;;;;;;;13.40;10.60;;;;;;;6.18;53.81;100351.50;6812338;29;20223;-78
2022/01/14 18:51:29;;;;;;;15.63;10.97;;;;;;;6.29;53.17;100351.38;6811993;29;20212;-78
2022/01/14 18:54:51;;;;;;;15.47;12.10;;;;;;;5.80;54.53;100354.16;6811328;29;20326;-79
2022/01/14 18:58:12;;;;;;;19.07;11.63;;;;;;;6.01;54.20;100362.06;6811510;29;20233;-78
2022/01/14 19:01:34;;;;;;;16.23;12.37;;;;;;;6.14;53.74;100351.94;6811648;29;20211;-79
2022/01/14 19:04:57;;;;;;;18.20;11.63;;;;;;;5.94;53.44;100350.19;6811608;29;20232;-78
2022/01/14 19:08:18;;;;;;;20.27;14.23;;;;;;;5.87;53.60;100351.75;6812045;29;20208;-79
2022/01/14 19:11:42;;;;;;;17.00;11.93;;;;;;;5.88;53.71;100356.09;6812261;29;20302;-76
2022/01/14 19:15:04;;;;;;;17.17;13.20;;;;;;;4.87;55.92;100330.38;6811204;29;20302;-80
2022/01/14 19:18:26;;;;;;;19.23;13.17;;;;;;;5.29;55.35;100331.97;6811665;29;20690;-77
2022/01/14 19:21:49;;;;;;;15.17;11.67;;;;;;;5.62;55.34;100353.06;6811447;29;20209;-79
2022/01/14 19:25:12;;;;;;;18.20;12.47;;;;;;;5.08;55.75;100347.19;6811192;29;20230;-78
2022/01/14 19:28:33;;;;;;;15.90;10.70;;;;;;;5.54;55.70;100352.88;6811223;29;20219;-79
2022/01/14 19:31:55;;;;;;;14.00;10.83;;;;;;;5.53;55.41;100339.66;6811229;29;20214;-79
2022/01/14 19:35:19;;;;;;;16.10;11.47;;;;;;;5.20;54.85;100318.56;6810861;29;20250;-78
2022/01/14 19:38:42;;;;;;;11.37;9.67;;;;;;;5.34;55.49;100344.94;6815737;29;20215;-78
2022/01/14 19:42:06;;;;;;;13.97;10.33;;;;;;;5.36;55.49;100343.00;6816188;29;20216;-79
2022/01/14 19:45:28;;;;;;;15.53;10.57;;;;;;;5.35;56.08;100339.44;6815619;29;20286;-77
2022/01/14 19:48:51;;;;;;;15.47;10.67;;;;;;;5.27;55.97;100344.63;6815990;29;20222;-78
2022/01/14 19:52:13;;;;;;;15.97;10.77;;;;;;;5.47;55.81;100337.50;6815973;29;20213;-77
2022/01/14 19:55:36;;;;;;;15.30;10.87;;;;;;;5.27;55.27;100317.91;6805249;29;20223;-78
2022/01/14 19:58:58;;;;;;;14.93;10.83;;;;;;;5.45;55.20;100326.13;6803524;29;20427;-77
2022/01/14 20:02:19;;;;;;;17.67;11.67;;;;;;;5.00;55.31;100335.47;6815225;29;20666;-78
2022/01/14 20:05:43;;;;;;;105.00;41.43;;;;;;;4.68;56.02;100279.50;6814495;29;20236;-78
2022/01/14 20:09:05;;;;;;;49.60;26.23;;;;;;;4.64;56.87;100303.91;6814259;29;20217;-79
2022/01/14 20:12:28;;;;;;;40.30;22.07;;;;;;;5.02;56.66;100337.03;6797137;29;20241;-78
2022/01/14 20:15:49;;;;;;;28.63;18.17;;;;;;;4.89;56.98;100330.25;6788286;29;20708;-77
2022/01/14 20:19:11;;;;;;;15.47;12.00;;;;;;;5.12;55.38;100303.19;6789252;29;20220;-80
2022/01/14 20:22:32;;;;;;;17.07;12.93;;;;;;;5.05;55.49;100295.84;6788909;29;20215;-77
2022/01/14 20:25:54;;;;;;;19.53;12.57;;;;;;;5.24;55.08;100317.31;6788832;29;20245;-78
2022/01/14 20:29:17;;;;;;;18.63;13.53;;;;;;;4.91;55.63;100331.81;6788968;29;20217;-78
2022/01/14 20:32:40;;;;;;;16.63;11.37;;;;;;;5.14;55.58;100333.31;6789150;29;20221;-77
2022/01/14 20:36:03;;;;;;;15.07;12.17;;;;;;;5.12;54.67;100335.28;6788177;29;20368;-78
2022/01/14 20:39:24;;;;;;;18.60;12.77;;;;;;;4.47;54.86;100201.22;6788725;29;20215;-78
2022/01/14 20:42:48;;;;;;;20.10;14.10;;;;;;;4.81;55.97;100325.56;6788556;29;20217;-78
2022/01/14 20:46:11;;;;;;;17.03;13.50;;;;;;;4.96;55.69;100320.72;6788064;29;20235;-78
2022/01/14 20:49:35;;;;;;;22.77;14.77;;;;;;;4.37;56.07;100255.56;6788276;29;20211;-77
2022/01/14 20:52:58;;;;;;;26.00;14.53;;;;;;;4.70;56.23;100322.94;6788731;29;20221;-78
2022/01/14 20:56:19;;;;;;;21.03;14.43;;;;;;;4.90;55.72;100303.34;6787887;29;20373;-78
2022/01/14 20:59:41;;;;;;;17.97;13.03;;;;;;;4.80;55.79;100317.66;6787247;29;20211;-79
2022/01/14 21:03:04;;;;;;;18.33;13.53;;;;;;;4.60;56.78;100315.88;6805650;29;20216;-79
2022/01/14 21:06:26;;;;;;;17.80;13.00;;;;;;;4.63;56.58;100320.94;6813834;29;20234;-77
2022/01/14 21:09:47;;;;;;;17.40;12.10;;;;;;;4.74;56.18;100328.88;6814337;29;20211;-76
2022/01/14 21:13:09;;;;;;;17.73;12.60;;;;;;;4.90;55.48;100315.91;6814682;29;20214;-78
2022/01/14 21:16:31;;;;;;;17.67;13.00;;;;;;;4.26;56.51;100283.13;6811629;29;20217;-77
2022/01/14 21:19:54;;;;;;;20.27;13.67;;;;;;;4.02;57.07;100268.38;6814371;29;20207;-76
2022/01/14 21:23:16;;;;;;;17.90;13.40;;;;;;;4.59;56.30;100315.00;6814030;29;20261;-77
2022/01/14 21:26:39;;;;;;;19.30;12.87;;;;;;;4.54;56.96;100295.84;6812414;29;20687;-80
2022/01/14 21:30:03;;;;;;;17.47;13.10;;;;;;;4.56;56.54;100304.59;6814119;29;20265;-77
2022/01/14 21:33:25;;;;;;;21.07;13.33;;;;;;;4.57;56.60;100316.09;6814129;29;20280;-79
2022/01/14 21:36:48;;;;;;;21.83;13.00;;;;;;;4.10;57.14;100301.44;6813715;29;20207;-77